createdAt,value
2022-11-16T00:00:36.861Z,4.34
2022-11-16T00:01:36.922Z,4.34
2022-11-16T00:02:36.915Z,4.34
2022-11-16T00:03:36.787Z,4.35
2022-11-16T00:04:36.797Z,4.36
2022-11-16T00:05:36.776Z,4.36
2022-11-16T00:06:36.762Z,4.36
2022-11-16T00:07:36.842Z,4.36
2022-11-16T00:08:36.877Z,4.36
2022-11-16T00:09:36.739Z,4.36
2022-11-16T00:10:36.707Z,4.36
2022-11-16T00:11:36.692Z,4.36
2022-11-16T00:12:36.757Z,4.36
2022-11-16T00:13:36.661Z,4.35
2022-11-16T00:15:47.802Z,5.48
2022-11-16T00:16:48.806Z,5.03
2022-11-16T00:17:48.789Z,4.74
2022-11-16T00:18:48.781Z,4.57
2022-11-16T00:19:48.774Z,4.47
2022-11-16T00:20:48.777Z,4.42
2022-11-16T00:21:48.746Z,4.39
2022-11-16T00:22:48.738Z,4.37
2022-11-16T00:23:48.692Z,4.35
2022-11-16T00:24:48.715Z,4.34
2022-11-16T00:25:48.712Z,4.33
2022-11-16T00:26:49.704Z,4.31
2022-11-16T00:27:48.655Z,4.30
2022-11-16T00:28:48.640Z,4.29
2022-11-16T00:29:48.627Z,4.28
2022-11-16T00:30:48.629Z,4.27
2022-11-16T00:31:48.626Z,4.26
2022-11-16T00:32:48.605Z,4.26
2022-11-16T00:33:48.594Z,4.25
2022-11-16T00:34:48.581Z,4.25
2022-11-16T00:35:48.540Z,4.25
2022-11-16T00:36:48.540Z,4.24
2022-11-16T00:37:48.516Z,4.23
2022-11-16T00:38:48.526Z,4.21
2022-11-16T00:39:48.526Z,4.21
2022-11-16T00:40:48.499Z,4.20
2022-11-16T00:41:48.485Z,4.19
2022-11-16T00:42:48.457Z,4.20
2022-11-16T00:43:48.444Z,4.20
2022-11-16T00:44:48.425Z,4.21
2022-11-16T00:45:48.415Z,4.21
2022-11-16T00:46:48.403Z,4.21
2022-11-16T00:47:48.413Z,4.21
2022-11-16T00:48:48.368Z,4.20
2022-11-16T00:49:48.398Z,4.19
2022-11-16T00:50:48.366Z,4.17
2022-11-16T00:51:48.357Z,4.17
2022-11-16T00:52:48.349Z,4.17
2022-11-16T00:53:48.320Z,4.17
2022-11-16T00:54:48.305Z,4.17
2022-11-16T00:55:48.339Z,4.17
2022-11-16T00:56:48.282Z,4.16
2022-11-16T00:57:48.259Z,4.16
2022-11-16T00:58:48.290Z,4.15
2022-11-16T00:59:48.274Z,4.15
2022-11-16T01:00:48.227Z,4.14
2022-11-16T01:01:48.260Z,4.14
2022-11-16T01:02:48.214Z,4.14
2022-11-16T01:03:48.198Z,4.13
2022-11-16T01:04:48.179Z,4.13
2022-11-16T01:05:48.175Z,4.12
2022-11-16T01:06:48.172Z,4.12
2022-11-16T01:07:48.146Z,4.12
2022-11-16T01:08:48.110Z,4.11
2022-11-16T01:09:48.143Z,4.11
2022-11-16T01:10:48.119Z,4.12
2022-11-16T01:11:48.099Z,4.12
2022-11-16T01:12:48.082Z,4.13
2022-11-16T01:13:48.067Z,4.13
2022-11-16T01:14:48.050Z,4.13
2022-11-16T01:15:48.056Z,4.13
2022-11-16T01:16:48.004Z,4.13
2022-11-16T01:17:48.028Z,4.12
2022-11-16T01:18:47.977Z,4.11
2022-11-16T01:19:47.970Z,4.11
2022-11-16T01:20:47.951Z,4.11
2022-11-16T01:21:47.961Z,4.11
2022-11-16T01:22:47.961Z,4.11
2022-11-16T01:23:47.950Z,4.11
2022-11-16T01:24:47.924Z,4.12
2022-11-16T01:25:47.906Z,4.12
2022-11-16T01:26:47.907Z,4.12
2022-11-16T01:27:47.882Z,4.12
2022-11-16T01:28:47.857Z,4.13
2022-11-16T01:29:47.855Z,4.13
2022-11-16T01:30:47.880Z,4.12
2022-11-16T01:31:47.826Z,4.12
2022-11-16T01:32:47.819Z,4.12
2022-11-16T01:33:47.812Z,4.12
2022-11-16T01:34:47.796Z,4.12
2022-11-16T01:35:47.813Z,4.12
2022-11-16T01:36:47.751Z,4.11
2022-11-16T01:37:47.757Z,4.11
2022-11-16T01:38:47.737Z,4.10
2022-11-16T01:39:47.774Z,4.10
2022-11-16T01:40:47.730Z,4.11
2022-11-16T01:41:47.741Z,4.11
2022-11-16T01:42:47.686Z,4.11
2022-11-16T01:43:47.700Z,4.11
2022-11-16T01:44:47.675Z,4.11
2022-11-16T01:45:47.680Z,4.10
2022-11-16T01:46:47.639Z,4.10
2022-11-16T01:47:47.620Z,4.10
2022-11-16T01:48:47.681Z,4.09
2022-11-16T01:49:47.647Z,4.09
2022-11-16T01:50:47.597Z,4.08
2022-11-16T01:51:47.573Z,4.08
2022-11-16T01:52:47.571Z,4.08
2022-11-16T01:53:47.549Z,4.08
2022-11-16T01:54:47.541Z,4.07
2022-11-16T01:55:47.561Z,4.05
2022-11-16T01:56:47.509Z,4.04
2022-11-16T01:57:47.506Z,4.04
2022-11-16T01:58:47.472Z,4.04
2022-11-16T01:59:47.471Z,4.03
2022-11-16T02:00:47.472Z,4.02
2022-11-16T02:01:47.429Z,4.01
2022-11-16T02:02:47.435Z,4.00
2022-11-16T02:03:47.422Z,4.00
2022-11-16T02:04:47.380Z,4.00
2022-11-16T02:05:47.389Z,4.00
2022-11-16T02:06:47.454Z,4.00
2022-11-16T02:07:47.395Z,3.99
2022-11-16T02:08:47.363Z,3.99
2022-11-16T02:09:47.344Z,3.99
2022-11-16T02:10:47.321Z,3.99
2022-11-16T02:11:47.320Z,3.98
2022-11-16T02:12:47.294Z,3.97
2022-11-16T02:13:47.309Z,3.97
2022-11-16T02:14:47.271Z,3.97
2022-11-16T02:15:47.278Z,3.97
2022-11-16T02:16:47.220Z,3.98
2022-11-16T02:17:47.229Z,3.98
2022-11-16T02:18:47.254Z,3.98
2022-11-16T02:19:47.236Z,3.99
2022-11-16T02:20:47.200Z,3.99
2022-11-16T02:21:47.161Z,4.00
2022-11-16T02:22:47.162Z,3.99
2022-11-16T02:23:47.156Z,3.98
2022-11-16T02:24:47.124Z,3.97
2022-11-16T02:25:47.144Z,3.96
2022-11-16T02:26:47.152Z,3.96
2022-11-16T02:27:47.091Z,3.96
2022-11-16T02:28:47.073Z,3.95
2022-11-16T02:29:47.081Z,3.95
2022-11-16T02:30:47.040Z,3.95
2022-11-16T02:31:47.028Z,3.96
2022-11-16T02:32:47.033Z,3.96
2022-11-16T02:33:47.030Z,3.97
2022-11-16T02:34:47.028Z,3.97
2022-11-16T02:35:47.019Z,3.97
2022-11-16T02:36:46.984Z,3.97
2022-11-16T02:37:47.024Z,3.97
2022-11-16T02:38:46.978Z,3.96
2022-11-16T02:39:46.951Z,3.95
2022-11-16T02:40:46.920Z,3.93
2022-11-16T02:41:46.928Z,3.92
2022-11-16T02:42:46.887Z,3.91
2022-11-16T02:43:46.891Z,3.90
2022-11-16T02:44:46.891Z,3.89
2022-11-16T02:45:46.839Z,3.89
2022-11-16T02:46:46.860Z,3.88
2022-11-16T02:47:46.833Z,3.87
2022-11-16T02:48:46.813Z,3.85
2022-11-16T02:49:46.815Z,3.85
2022-11-16T02:50:46.794Z,3.85
2022-11-16T02:51:46.781Z,3.84
2022-11-16T02:52:46.800Z,3.84
2022-11-16T02:53:46.758Z,3.85
2022-11-16T02:54:46.747Z,3.86
2022-11-16T02:55:46.715Z,3.85
2022-11-16T02:56:46.761Z,3.84
2022-11-16T02:57:46.717Z,3.83
2022-11-16T02:58:46.727Z,3.82
2022-11-16T02:59:46.674Z,3.82
2022-11-16T03:00:46.733Z,3.82
2022-11-16T03:01:46.637Z,3.82
2022-11-16T03:02:46.631Z,3.83
2022-11-16T03:03:46.641Z,3.84
2022-11-16T03:04:46.612Z,3.84
2022-11-16T03:05:46.596Z,3.84
2022-11-16T03:06:46.791Z,3.83
2022-11-16T03:07:46.596Z,3.82
2022-11-16T03:08:46.575Z,3.82
2022-11-16T03:09:46.573Z,3.82
2022-11-16T03:10:46.551Z,3.82
2022-11-16T03:11:46.504Z,3.82
2022-11-16T03:12:46.514Z,3.82
2022-11-16T03:13:46.496Z,3.83
2022-11-16T03:14:46.492Z,3.84
2022-11-16T03:15:46.451Z,3.84
2022-11-16T03:16:46.468Z,3.85
2022-11-16T03:17:46.429Z,3.85
2022-11-16T03:18:46.445Z,3.84
2022-11-16T03:19:46.393Z,3.85
2022-11-16T03:20:46.408Z,3.85
2022-11-16T03:21:46.381Z,3.85
2022-11-16T03:22:46.384Z,3.85
2022-11-16T03:23:46.358Z,3.86
2022-11-16T03:24:46.348Z,3.87
2022-11-16T03:25:46.321Z,3.88
2022-11-16T03:26:46.311Z,3.88
2022-11-16T03:27:46.336Z,3.89
2022-11-16T03:28:46.287Z,3.90
2022-11-16T03:29:46.275Z,3.90
2022-11-16T03:30:46.260Z,3.91
2022-11-16T03:31:46.252Z,3.92
2022-11-16T03:32:46.270Z,3.93
2022-11-16T03:33:46.219Z,3.93
2022-11-16T03:34:46.226Z,3.93
2022-11-16T03:35:46.210Z,3.94
2022-11-16T03:36:46.202Z,3.94
2022-11-16T03:37:46.180Z,3.95
2022-11-16T03:38:46.171Z,3.95
2022-11-16T03:39:46.154Z,3.96
2022-11-16T03:40:46.155Z,3.97
2022-11-16T03:41:46.116Z,3.97
2022-11-16T03:42:46.116Z,3.98
2022-11-16T03:43:46.117Z,3.98
2022-11-16T03:44:46.090Z,3.99
2022-11-16T03:45:46.080Z,4.00
2022-11-16T03:46:46.043Z,4.00
2022-11-16T03:47:46.462Z,4.01
2022-11-16T03:48:46.701Z,4.02
2022-11-16T03:49:46.251Z,4.02
2022-11-16T03:50:46.507Z,4.02
2022-11-16T03:51:46.396Z,4.03
2022-11-16T03:52:45.992Z,4.02
2022-11-16T03:53:46.211Z,4.03
2022-11-16T03:54:46.115Z,4.03
2022-11-16T03:55:49.764Z,4.04
2022-11-16T03:56:45.932Z,4.05
2022-11-16T03:57:45.922Z,4.06
2022-11-16T03:58:45.945Z,4.06
2022-11-16T03:59:45.904Z,4.07
2022-11-16T04:00:45.976Z,4.08
2022-11-16T04:01:45.859Z,4.08
2022-11-16T04:02:45.845Z,4.08
2022-11-16T04:03:45.822Z,4.08
2022-11-16T04:04:45.836Z,4.09
2022-11-16T04:05:45.808Z,4.09
2022-11-16T04:06:45.826Z,4.10
2022-11-16T04:07:45.790Z,4.11
2022-11-16T04:08:45.786Z,4.11
2022-11-16T04:09:45.792Z,4.12
2022-11-16T04:10:45.739Z,4.12
2022-11-16T04:11:45.745Z,4.12
2022-11-16T04:12:45.730Z,4.13
2022-11-16T04:13:45.704Z,4.14
2022-11-16T04:14:45.703Z,4.14
2022-11-16T04:15:45.676Z,4.15
2022-11-16T04:16:45.659Z,4.15
2022-11-16T04:17:45.660Z,4.16
2022-11-16T04:18:45.625Z,4.16
2022-11-16T04:19:45.623Z,4.18
2022-11-16T04:20:45.623Z,4.19
2022-11-16T04:21:45.632Z,4.20
2022-11-16T04:22:45.593Z,4.21
2022-11-16T04:23:45.575Z,4.22
2022-11-16T04:24:45.583Z,4.23
2022-11-16T04:25:45.549Z,4.24
2022-11-16T04:26:45.565Z,4.25
2022-11-16T04:27:45.515Z,4.27
2022-11-16T04:28:45.565Z,4.28
2022-11-16T04:29:45.524Z,4.29
2022-11-16T04:30:45.486Z,4.29
2022-11-16T04:31:45.465Z,4.30
2022-11-16T04:32:45.495Z,4.31
2022-11-16T04:33:45.464Z,4.32
2022-11-16T04:34:45.442Z,4.33
2022-11-16T04:35:45.428Z,4.34
2022-11-16T04:36:45.391Z,4.35
2022-11-16T04:37:45.410Z,4.36
2022-11-16T04:38:45.420Z,4.37
2022-11-16T04:39:45.369Z,4.38
2022-11-16T04:40:45.375Z,4.39
2022-11-16T04:41:45.364Z,4.40
2022-11-16T04:42:45.367Z,4.41
2022-11-16T04:43:45.313Z,4.42
2022-11-16T04:44:45.304Z,4.42
2022-11-16T04:45:45.275Z,4.43
2022-11-16T04:46:45.282Z,4.44
2022-11-16T04:47:45.247Z,4.45
2022-11-16T04:48:45.237Z,4.46
2022-11-16T04:49:45.316Z,4.47
2022-11-16T04:50:45.220Z,4.48
2022-11-16T04:51:45.240Z,4.49
2022-11-16T04:52:45.219Z,4.50
2022-11-16T04:53:45.189Z,4.51
2022-11-16T04:54:45.176Z,4.52
2022-11-16T04:55:45.167Z,4.53
2022-11-16T04:56:45.146Z,4.53
2022-11-16T04:57:45.145Z,4.54
2022-11-16T04:58:45.120Z,4.55
2022-11-16T04:59:45.116Z,4.56
2022-11-16T05:00:45.092Z,4.57
2022-11-16T05:01:45.124Z,4.58
2022-11-16T05:02:45.070Z,4.58
2022-11-16T05:03:45.054Z,4.60
2022-11-16T05:04:45.071Z,4.61
2022-11-16T05:05:45.021Z,4.61
2022-11-16T05:06:45.007Z,4.62
2022-11-16T05:07:44.983Z,4.63
2022-11-16T05:08:45.031Z,4.64
2022-11-16T05:09:44.956Z,4.65
2022-11-16T05:10:44.968Z,4.66
2022-11-16T05:11:44.938Z,4.67
2022-11-16T05:12:44.959Z,4.67
2022-11-16T05:13:44.900Z,4.68
2022-11-16T05:14:44.902Z,4.69
2022-11-16T05:15:44.876Z,4.70
2022-11-16T05:16:44.887Z,4.71
2022-11-16T05:17:44.852Z,4.71
2022-11-16T05:18:44.877Z,4.71
2022-11-16T05:19:44.821Z,4.72
2022-11-16T05:20:44.825Z,4.72
2022-11-16T05:21:44.827Z,4.73
2022-11-16T05:22:44.796Z,4.74
2022-11-16T05:23:44.773Z,4.74
2022-11-16T05:24:44.793Z,4.75
2022-11-16T05:25:44.779Z,4.75
2022-11-16T05:26:44.741Z,4.76
2022-11-16T05:27:44.747Z,4.77
2022-11-16T05:28:44.742Z,4.78
2022-11-16T05:29:44.740Z,4.78
2022-11-16T05:30:44.714Z,4.79
2022-11-16T05:31:44.696Z,4.79
2022-11-16T05:32:44.688Z,4.80
2022-11-16T05:33:44.670Z,4.80
2022-11-16T05:34:44.706Z,4.81
2022-11-16T05:35:44.663Z,4.82
2022-11-16T05:36:44.625Z,4.82
2022-11-16T05:37:44.648Z,4.82
2022-11-16T05:38:44.627Z,4.83
2022-11-16T05:39:44.593Z,4.83
2022-11-16T05:40:44.628Z,4.84
2022-11-16T05:41:44.588Z,4.84
2022-11-16T05:42:44.576Z,4.85
2022-11-16T05:43:44.562Z,4.85
2022-11-16T05:44:44.534Z,4.85
2022-11-16T05:45:44.500Z,4.86
2022-11-16T05:46:44.497Z,4.86
2022-11-16T05:47:44.503Z,4.87
2022-11-16T05:48:44.529Z,4.87
2022-11-16T05:49:44.446Z,4.87
2022-11-16T05:50:44.471Z,4.87
2022-11-16T05:51:44.426Z,4.87
2022-11-16T05:52:44.429Z,4.88
2022-11-16T05:53:44.429Z,4.89
2022-11-16T05:54:44.415Z,4.90
2022-11-16T05:55:44.445Z,4.90
2022-11-16T05:56:44.358Z,4.91
2022-11-16T05:57:44.388Z,4.91
2022-11-16T05:58:44.330Z,4.92
2022-11-16T05:59:44.338Z,4.92
2022-11-16T06:00:44.329Z,4.92
2022-11-16T06:01:44.367Z,4.93
2022-11-16T06:02:44.350Z,4.93
2022-11-16T06:03:44.263Z,4.94
2022-11-16T06:04:44.249Z,4.95
2022-11-16T06:05:44.273Z,4.95
2022-11-16T06:06:44.250Z,4.95
2022-11-16T06:07:44.260Z,4.96
2022-11-16T06:08:44.226Z,4.96
2022-11-16T06:09:44.199Z,4.97
2022-11-16T06:10:44.241Z,4.98
2022-11-16T06:11:44.191Z,4.98
2022-11-16T06:12:44.174Z,4.99
2022-11-16T06:13:44.153Z,5.00
2022-11-16T06:14:44.143Z,5.00
2022-11-16T06:15:57.028Z,5.00
2022-11-16T06:16:44.165Z,5.00
2022-11-16T06:17:44.106Z,5.01
2022-11-16T06:18:44.097Z,5.01
2022-11-16T06:19:44.108Z,5.02
2022-11-16T06:20:44.094Z,5.02
2022-11-16T06:21:44.082Z,5.03
2022-11-16T06:22:44.032Z,5.04
2022-11-16T06:23:44.002Z,5.04
2022-11-16T06:24:44.032Z,5.04
2022-11-16T06:25:43.964Z,5.05
2022-11-16T06:26:43.982Z,5.06
2022-11-16T06:27:43.951Z,5.06
2022-11-16T06:28:43.959Z,5.07
2022-11-16T06:29:43.952Z,5.07
2022-11-16T06:30:43.931Z,5.08
2022-11-16T06:31:43.908Z,5.08
2022-11-16T06:32:43.910Z,5.09
2022-11-16T06:33:43.861Z,5.09
2022-11-16T06:34:43.874Z,5.09
2022-11-16T06:35:43.847Z,5.10
2022-11-16T06:36:43.832Z,5.10
2022-11-16T06:37:43.848Z,5.11
2022-11-16T06:38:43.820Z,5.11
2022-11-16T06:39:43.791Z,5.12
2022-11-16T06:40:43.787Z,5.12
2022-11-16T06:41:43.789Z,5.13
2022-11-16T06:42:43.810Z,5.14
2022-11-16T06:43:43.757Z,5.14
2022-11-16T06:44:43.754Z,5.14
2022-11-16T06:45:43.739Z,5.15
2022-11-16T06:46:43.723Z,5.15
2022-11-16T06:47:43.719Z,5.15
2022-11-16T06:48:43.740Z,5.16
2022-11-16T06:49:43.669Z,5.16
2022-11-16T06:50:43.747Z,5.16
2022-11-16T06:51:43.650Z,5.16
2022-11-16T06:52:43.693Z,5.17
2022-11-16T06:53:43.689Z,5.18
2022-11-16T06:54:43.624Z,5.18
2022-11-16T06:55:43.607Z,5.19
2022-11-16T06:56:43.606Z,5.20
2022-11-16T06:57:43.586Z,5.20
2022-11-16T06:58:43.570Z,5.21
2022-11-16T06:59:43.537Z,5.21
2022-11-16T07:00:43.542Z,5.21
2022-11-16T07:01:43.624Z,5.21
2022-11-16T07:02:43.513Z,5.22
2022-11-16T07:03:43.478Z,5.22
2022-11-16T07:04:43.487Z,5.23
2022-11-16T07:05:43.487Z,5.23
2022-11-16T07:06:43.509Z,5.24
2022-11-16T07:07:43.466Z,5.25
2022-11-16T07:08:43.472Z,5.26
2022-11-16T07:09:43.455Z,5.26
2022-11-16T07:10:43.413Z,5.27
2022-11-16T07:11:43.445Z,5.27
2022-11-16T07:12:43.374Z,5.28
2022-11-16T07:13:43.372Z,5.28
2022-11-16T07:14:43.331Z,5.28
2022-11-16T07:15:43.343Z,5.28
2022-11-16T07:16:43.300Z,5.28
2022-11-16T07:17:43.332Z,5.29
2022-11-16T07:18:43.309Z,5.29
2022-11-16T07:19:43.285Z,5.30
2022-11-16T07:20:43.270Z,5.30
2022-11-16T07:21:43.317Z,5.31
2022-11-16T07:22:43.250Z,5.31
2022-11-16T07:23:43.235Z,5.32
2022-11-16T07:24:43.230Z,5.32
2022-11-16T07:25:43.238Z,5.33
2022-11-16T07:26:43.211Z,5.33
2022-11-16T07:27:43.235Z,5.33
2022-11-16T07:28:47.987Z,5.33
2022-11-16T07:29:43.176Z,5.33
2022-11-16T07:30:43.168Z,5.34
2022-11-16T07:31:43.138Z,5.34
2022-11-16T07:32:43.137Z,5.35
2022-11-16T07:33:43.142Z,5.35
2022-11-16T07:34:43.078Z,5.36
2022-11-16T07:35:43.063Z,5.36
2022-11-16T07:36:43.111Z,5.37
2022-11-16T07:37:43.057Z,5.37
2022-11-16T07:38:43.047Z,5.37
2022-11-16T07:39:43.011Z,5.37
2022-11-16T07:40:43.010Z,5.37
2022-11-16T07:41:43.020Z,5.38
2022-11-16T07:42:43.002Z,5.38
2022-11-16T07:43:44.377Z,5.39
2022-11-16T07:44:42.980Z,5.39
2022-11-16T07:45:42.947Z,5.39
2022-11-16T07:46:47.949Z,5.39
2022-11-16T07:47:42.932Z,5.39
2022-11-16T07:48:42.902Z,5.39
2022-11-16T07:49:42.914Z,5.39
2022-11-16T07:50:42.883Z,5.39
2022-11-16T07:51:42.911Z,5.39
2022-11-16T07:52:42.839Z,5.40
2022-11-16T07:53:42.858Z,5.40
2022-11-16T07:54:42.828Z,5.40
2022-11-16T07:55:42.817Z,5.40
2022-11-16T07:56:42.805Z,5.41
2022-11-16T07:57:42.799Z,5.41
2022-11-16T07:58:42.773Z,5.42
2022-11-16T07:59:42.767Z,5.43
2022-11-16T08:00:42.755Z,5.44
2022-11-16T08:01:42.783Z,5.44
2022-11-16T08:02:42.735Z,5.44
2022-11-16T08:03:42.709Z,5.44
2022-11-16T08:04:42.759Z,5.45
2022-11-16T08:05:42.689Z,5.45
2022-11-16T08:06:42.664Z,5.47
2022-11-16T08:07:42.698Z,5.47
2022-11-16T08:08:42.635Z,5.47
2022-11-16T08:09:42.655Z,5.47
2022-11-16T08:10:42.608Z,5.47
2022-11-16T08:11:42.608Z,5.48
2022-11-16T08:12:42.597Z,5.48
2022-11-16T08:13:42.603Z,5.48
2022-11-16T08:14:42.579Z,5.48
2022-11-16T08:15:42.555Z,5.47
2022-11-16T08:16:42.734Z,5.48
2022-11-16T08:17:42.518Z,5.48
2022-11-16T08:18:42.547Z,5.49
2022-11-16T08:19:42.514Z,5.49
2022-11-16T08:20:42.525Z,5.50
2022-11-16T08:21:42.486Z,5.49
2022-11-16T08:22:42.458Z,5.49
2022-11-16T08:23:42.441Z,5.49
2022-11-16T08:24:42.440Z,5.48
2022-11-16T08:25:42.412Z,5.48
2022-11-16T08:26:42.422Z,5.47
2022-11-16T08:27:42.407Z,5.46
2022-11-16T08:28:42.400Z,5.46
2022-11-16T08:29:42.391Z,5.46
2022-11-16T08:30:42.369Z,5.45
2022-11-16T08:31:42.345Z,5.45
2022-11-16T08:32:42.355Z,5.45
2022-11-16T08:33:42.393Z,5.43
2022-11-16T08:34:42.415Z,5.41
2022-11-16T08:35:42.307Z,5.40
2022-11-16T08:36:42.281Z,5.40
2022-11-16T08:37:42.274Z,5.41
2022-11-16T08:38:42.239Z,5.41
2022-11-16T08:39:42.243Z,5.42
2022-11-16T08:40:42.214Z,5.42
2022-11-16T08:41:42.241Z,5.42
2022-11-16T08:42:43.827Z,5.43
2022-11-16T08:43:42.190Z,5.43
2022-11-16T08:44:42.167Z,5.43
2022-11-16T08:45:42.156Z,5.42
2022-11-16T08:46:42.132Z,5.43
2022-11-16T08:47:42.133Z,5.43
2022-11-16T08:48:42.114Z,5.44
2022-11-16T08:49:46.700Z,5.44
2022-11-16T08:51:15.454Z,5.44
2022-11-16T08:51:42.080Z,5.44
2022-11-16T08:52:42.083Z,5.44
2022-11-16T08:53:42.055Z,5.44
2022-11-16T08:54:42.039Z,5.44
2022-11-16T08:55:42.039Z,5.45
2022-11-16T08:56:42.023Z,5.46
2022-11-16T08:57:42.028Z,5.46
2022-11-16T08:58:41.983Z,5.46
2022-11-16T08:59:41.988Z,5.47
2022-11-16T09:00:41.956Z,5.48
2022-11-16T09:01:42.008Z,5.49
2022-11-16T09:02:41.948Z,5.49
2022-11-16T09:03:41.949Z,5.49
2022-11-16T09:04:41.934Z,5.50
2022-11-16T09:05:41.909Z,5.51
2022-11-16T09:06:41.875Z,5.53
2022-11-16T09:07:41.861Z,5.54
2022-11-16T09:08:41.874Z,5.54
2022-11-16T09:09:42.052Z,5.55
2022-11-16T09:10:41.849Z,5.56
2022-11-16T09:11:41.814Z,5.57
2022-11-16T09:12:41.824Z,5.59
2022-11-16T09:13:41.786Z,5.60
2022-11-16T09:14:41.779Z,5.59
2022-11-16T09:15:41.798Z,5.59
2022-11-16T09:16:41.754Z,5.59
2022-11-16T09:17:41.755Z,5.60
2022-11-16T09:18:41.715Z,5.61
2022-11-16T09:19:41.709Z,5.61
2022-11-16T09:20:41.701Z,5.61
2022-11-16T09:21:41.711Z,5.61
2022-11-16T09:22:41.669Z,5.62
2022-11-16T09:23:41.673Z,5.61
2022-11-16T09:24:41.652Z,5.60
2022-11-16T09:25:41.653Z,5.59
2022-11-16T09:26:41.652Z,5.60
2022-11-16T09:27:41.627Z,5.60
2022-11-16T09:28:41.608Z,5.60
2022-11-16T09:29:41.578Z,5.60
2022-11-16T09:30:41.564Z,5.59
2022-11-16T09:31:41.571Z,5.60
2022-11-16T09:32:41.594Z,5.61
2022-11-16T09:33:41.539Z,5.61
2022-11-16T09:34:41.517Z,5.60
2022-11-16T09:35:41.499Z,5.60
2022-11-16T09:36:41.538Z,5.61
2022-11-16T09:37:41.523Z,5.62
2022-11-16T09:39:13.289Z,5.63
2022-11-16T09:39:41.482Z,5.65
2022-11-16T09:40:41.455Z,5.66
2022-11-16T09:41:41.447Z,5.67
2022-11-16T09:42:41.417Z,5.67
2022-11-16T09:43:45.772Z,5.68
2022-11-16T09:44:41.447Z,5.69
2022-11-16T09:45:41.421Z,5.70
2022-11-16T09:46:41.418Z,5.71
2022-11-16T09:47:41.386Z,5.72
2022-11-16T09:48:41.379Z,5.72
2022-11-16T09:49:41.389Z,5.73
2022-11-16T09:50:41.372Z,5.72
2022-11-16T09:51:41.416Z,5.72
2022-11-16T09:52:41.449Z,5.71
2022-11-16T09:53:41.339Z,5.70
2022-11-16T09:54:41.312Z,5.69
2022-11-16T09:55:41.457Z,5.69
2022-11-16T09:56:41.254Z,5.68
2022-11-16T09:57:41.362Z,5.68
2022-11-16T10:05:56.667Z,6.81
2022-11-16T10:06:57.709Z,6.35
2022-11-16T10:07:57.617Z,6.04
2022-11-16T10:08:57.626Z,5.86
2022-11-16T10:09:57.626Z,5.75
2022-11-16T10:10:57.618Z,5.67
2022-11-16T10:11:57.647Z,5.62
2022-11-16T10:12:57.610Z,5.58
2022-11-16T10:14:02.821Z,5.56
2022-11-16T10:14:57.592Z,5.54
2022-11-16T10:15:57.562Z,5.52
2022-11-16T10:16:57.557Z,5.50
2022-11-16T10:17:57.521Z,5.48
2022-11-16T10:18:57.488Z,5.47
2022-11-16T10:19:57.517Z,5.46
2022-11-16T10:20:57.476Z,5.46
2022-11-16T10:21:57.484Z,5.46
2022-11-16T10:22:57.639Z,5.47
2022-11-16T10:23:57.449Z,5.48
2022-11-16T10:24:57.403Z,5.50
2022-11-16T10:25:57.407Z,5.50
2022-11-16T10:26:57.408Z,5.50
2022-11-16T10:27:57.409Z,5.50
2022-11-16T10:28:57.435Z,5.50
2022-11-16T10:29:57.342Z,5.50
2022-11-16T10:30:57.353Z,5.50
2022-11-16T10:31:57.332Z,5.50
2022-11-16T10:32:57.302Z,5.50
2022-11-16T10:33:57.360Z,5.49
2022-11-16T10:34:57.268Z,5.47
2022-11-16T10:35:57.321Z,5.47
2022-11-16T10:36:57.231Z,5.46
2022-11-16T10:37:57.318Z,5.46
2022-11-16T10:38:57.223Z,5.46
2022-11-16T10:39:57.217Z,5.46
2022-11-16T10:40:57.196Z,5.46
2022-11-16T10:41:57.176Z,5.46
2022-11-16T10:42:57.176Z,5.47
2022-11-16T10:43:57.181Z,5.46
2022-11-16T10:44:57.143Z,5.46
2022-11-16T10:45:57.155Z,5.46
2022-11-16T10:46:57.130Z,5.46
2022-11-16T10:47:57.098Z,5.46
2022-11-16T10:48:57.106Z,5.46
2022-11-16T10:49:57.120Z,5.46
2022-11-16T10:50:57.309Z,5.46
2022-11-16T10:51:57.064Z,5.45
2022-11-16T10:52:57.054Z,5.46
2022-11-16T10:53:57.050Z,5.46
2022-11-16T10:54:57.050Z,5.47
2022-11-16T10:55:57.030Z,5.47
2022-11-16T10:56:56.995Z,5.47
2022-11-16T10:57:57.017Z,5.47
2022-11-16T10:58:56.990Z,5.48
2022-11-16T10:59:56.990Z,5.48
2022-11-16T11:00:56.965Z,5.47
2022-11-16T11:01:56.933Z,5.46
2022-11-16T11:02:56.926Z,5.47
2022-11-16T11:03:56.923Z,5.47
2022-11-16T11:04:56.919Z,5.46
2022-11-16T11:05:56.907Z,5.45
2022-11-16T11:06:56.970Z,5.44
2022-11-16T11:07:59.555Z,5.44
2022-11-16T11:08:56.873Z,5.44
2022-11-16T11:09:56.898Z,5.43
2022-11-16T11:10:56.807Z,5.43
2022-11-16T11:11:56.844Z,5.43
2022-11-16T11:12:56.810Z,5.42
2022-11-16T11:13:56.789Z,5.42
2022-11-16T11:14:56.788Z,5.42
2022-11-16T11:15:56.737Z,5.42
2022-11-16T11:16:56.782Z,5.42
2022-11-16T11:17:56.793Z,5.41
2022-11-16T11:18:56.736Z,5.40
2022-11-16T11:19:56.712Z,5.40
2022-11-16T11:20:56.706Z,5.39
2022-11-16T11:21:56.725Z,5.39
2022-11-16T11:22:56.670Z,5.40
2022-11-16T11:24:10.555Z,5.39
2022-11-16T11:24:56.630Z,5.38
2022-11-16T11:25:56.612Z,5.38
2022-11-16T11:26:56.591Z,5.39
2022-11-16T11:27:56.593Z,5.39
2022-11-16T11:28:56.565Z,5.39
2022-11-16T11:29:56.584Z,5.40
2022-11-16T11:30:56.530Z,5.41
2022-11-16T11:31:56.555Z,5.42
2022-11-16T11:32:56.525Z,5.43
2022-11-16T11:33:56.509Z,5.44
2022-11-16T11:34:56.492Z,5.44
2022-11-16T11:35:56.470Z,5.44
2022-11-16T11:36:56.476Z,5.44
2022-11-16T11:37:56.477Z,5.44
2022-11-16T11:38:56.523Z,5.43
2022-11-16T11:39:56.416Z,5.42
2022-11-16T11:40:56.405Z,5.42
2022-11-16T11:41:56.426Z,5.42
2022-11-16T11:42:56.460Z,5.42
2022-11-16T11:43:56.382Z,5.43
2022-11-16T11:44:56.376Z,5.42
2022-11-16T11:45:56.363Z,5.42
2022-11-16T11:47:42.509Z,5.42
2022-11-16T11:48:00.797Z,5.42
2022-11-16T11:48:56.327Z,5.42
2022-11-16T11:49:56.354Z,5.43
2022-11-16T11:50:56.285Z,5.43
2022-11-16T11:51:56.294Z,5.43
2022-11-16T11:52:56.297Z,5.42
2022-11-16T11:53:56.296Z,5.42
2022-11-16T11:54:56.334Z,5.42
2022-11-16T11:55:56.264Z,5.42
2022-11-16T11:56:56.241Z,5.42
2022-11-16T11:57:56.302Z,5.43
2022-11-16T11:58:56.278Z,5.43
2022-11-16T11:59:56.212Z,5.44
2022-11-16T12:00:56.158Z,5.44
2022-11-16T12:01:56.129Z,5.44
2022-11-16T12:02:56.142Z,5.44
2022-11-16T12:03:56.141Z,5.44
2022-11-16T12:04:56.104Z,5.44
2022-11-16T12:05:56.127Z,5.44
2022-11-16T12:06:56.131Z,5.44
2022-11-16T12:07:56.060Z,5.44
2022-11-16T12:08:56.185Z,5.45
2022-11-16T12:09:56.707Z,5.45
2022-11-16T12:10:56.028Z,5.45
2022-11-16T12:11:56.035Z,5.45
2022-11-16T12:12:56.029Z,5.45
2022-11-16T12:13:56.046Z,5.45
2022-11-16T12:14:55.977Z,5.45
2022-11-16T12:15:55.962Z,5.45
2022-11-16T12:16:55.970Z,5.45
2022-11-16T12:17:55.980Z,5.45
2022-11-16T12:18:55.942Z,5.45
2022-11-16T12:19:55.935Z,5.46
2022-11-16T12:20:55.895Z,5.46
2022-11-16T12:21:55.926Z,5.46
2022-11-16T12:23:01.036Z,5.47
2022-11-16T12:23:55.891Z,5.48
2022-11-16T12:24:55.843Z,5.48
2022-11-16T12:25:55.847Z,5.48
2022-11-16T12:26:55.821Z,5.49
2022-11-16T12:27:55.806Z,5.49
2022-11-16T12:28:55.795Z,5.49
2022-11-16T12:29:55.793Z,5.50
2022-11-16T12:30:55.744Z,5.50
2022-11-16T12:31:55.827Z,5.50
2022-11-16T12:32:55.741Z,5.51
2022-11-16T12:33:55.778Z,5.51
2022-11-16T12:34:55.690Z,5.51
2022-11-16T12:35:55.683Z,5.52
2022-11-16T12:36:55.667Z,5.51
2022-11-16T12:37:55.657Z,5.51
2022-11-16T12:38:55.848Z,5.51
2022-11-16T12:39:55.668Z,5.51
2022-11-16T12:40:55.637Z,5.51
2022-11-16T12:41:55.610Z,5.51
2022-11-16T12:42:55.604Z,5.51
2022-11-16T12:43:55.611Z,5.51
2022-11-16T12:44:55.581Z,5.52
2022-11-16T12:45:55.572Z,5.52
2022-11-16T12:46:55.547Z,5.52
2022-11-16T12:47:55.543Z,5.52
2022-11-16T12:48:55.521Z,5.52
2022-11-16T12:49:55.497Z,5.52
2022-11-16T12:50:55.504Z,5.52
2022-11-16T12:51:55.493Z,5.52
2022-11-16T12:52:55.479Z,5.52
2022-11-16T12:53:55.507Z,5.52
2022-11-16T12:55:24.319Z,5.52
2022-11-16T12:55:55.540Z,5.53
2022-11-16T12:56:55.488Z,5.53
2022-11-16T12:57:55.394Z,5.53
2022-11-16T12:58:55.377Z,5.53
2022-11-16T12:59:55.381Z,5.54
2022-11-16T13:00:55.690Z,5.54
2022-11-16T13:02:00.274Z,5.55
2022-11-16T13:02:55.356Z,5.55
2022-11-16T13:03:55.324Z,5.56
2022-11-16T13:04:55.314Z,5.56
2022-11-16T13:05:55.322Z,5.56
2022-11-16T13:06:55.348Z,5.56
2022-11-16T13:07:55.266Z,5.56
2022-11-16T13:08:55.271Z,5.56
2022-11-16T13:09:55.294Z,5.56
2022-11-16T13:10:55.239Z,5.56
2022-11-16T13:11:55.226Z,5.56
2022-11-16T13:13:09.060Z,5.57
2022-11-16T13:13:55.552Z,5.57
2022-11-16T13:14:55.200Z,5.57
2022-11-16T13:15:55.162Z,5.57
2022-11-16T13:16:55.161Z,5.58
2022-11-16T13:17:55.140Z,5.58
2022-11-16T13:18:55.125Z,5.58
2022-11-16T13:19:55.129Z,5.58
2022-11-16T13:20:55.095Z,5.58
2022-11-16T13:21:55.098Z,5.58
2022-11-16T13:22:55.071Z,5.58
2022-11-16T13:23:55.060Z,5.58
2022-11-16T13:24:55.054Z,5.59
2022-11-16T13:25:55.057Z,5.59
2022-11-16T13:26:55.042Z,5.59